Time,TemperatureF,DewpointF,PressureIn,WindDirection,WindDirectionDegrees,WindSpeedMPH,WindSpeedGustMPH,Humidity,HourlyPrecipIn,Conditions,Clouds,dailyrainin,SoftwareType,DateUTC
2013-01-30 00:00:00,73.7,69.0,29.74,SSW,200,7.0,-999.0,86,-99.99,,,0.00,weatherlink.com 1.10,2013-01-30 06:00:00,
2013-01-30 00:15:00,73.7,69.0,29.74,ESE,117,5.0,-999.0,86,-99.99,,,0.00,weatherlink.com 1.10,2013-01-30 06:15:00,
2013-01-30 00:30:00,73.8,69.0,29.74,SSE,150,9.0,-999.0,85,-99.99,,,0.00,weatherlink.com 1.10,2013-01-30 06:30:00,
2013-01-30 00:45:00,73.7,69.0,29.74,SSW,193,3.0,-999.0,85,-99.99,,,0.00,weatherlink.com 1.10,2013-01-30 06:45:00,
2013-01-30 01:00:00,73.7,69.0,29.74,SSW,196,4.0,-999.0,86,-99.99,,,0.00,weatherlink.com 1.10,2013-01-30 07:00:00,
2013-01-30 01:15:00,73.5,69.0,29.74,SSW,194,8.0,-999.0,86,-99.99,,,0.00,weatherlink.com 1.10,2013-01-30 07:15:00,
2013-01-30 01:30:00,73.5,69.0,29.73,SSW,194,6.0,-999.0,86,-99.99,,,0.00,weatherlink.com 1.10,2013-01-30 07:30:00,
2013-01-30 01:45:00,73.5,69.0,29.72,SSW,212,5.0,-999.0,86,-99.99,,,0.00,weatherlink.com 1.10,2013-01-30 07:45:00,
2013-01-30 02:00:00,73.8,69.0,29.71,SSW,205,8.0,-999.0,85,-99.99,,,0.00,weatherlink.com 1.10,2013-01-30 08:00:00,
2013-01-30 02:15:00,73.9,69.0,29.71,SSW,209,8.0,-999.0,85,-99.99,,,0.00,weatherlink.com 1.10,2013-01-30 08:15:00,
2013-01-30 02:30:00,73.9,70.0,29.71,South,179,6.0,-999.0,86,-99.99,,,0.00,weatherlink.com 1.10,2013-01-30 08:30:00,
2013-01-30 02:45:00,73.5,70.0,29.71,South,185,6.0,-999.0,87,-99.99,,,0.00,weatherlink.com 1.10,2013-01-30 08:45:00,
2013-01-30 03:00:00,73.3,69.0,29.71,South,182,6.0,-999.0,87,-99.99,,,0.00,weatherlink.com 1.10,2013-01-30 09:00:00,
2013-01-30 03:15:00,73.2,70.0,29.70,SW,216,3.0,-999.0,88,-99.99,,,0.00,weatherlink.com 1.10,2013-01-30 09:15:00,
2013-01-30 03:30:00,73.2,70.0,29.69,South,190,9.0,-999.0,88,-99.99,,,0.00,weatherlink.com 1.10,2013-01-30 09:30:00,
2013-01-30 03:46:00,73.0,69.0,29.68,South,184,11.0,-999.0,88,-99.99,,,0.00,weatherlink.com 1.10,2013-01-30 09:46:00,
2013-01-30 04:01:00,68.7,61.0,29.71,NNW,348,6.0,-999.0,77,-99.99,,,0.01,weatherlink.com 1.10,2013-01-30 10:01:00,
2013-01-30 04:15:00,59.1,55.0,29.71,NW,309,8.0,-999.0,86,-99.99,,,0.15,weatherlink.com 1.10,2013-01-30 10:15:00,
2013-01-30 04:31:00,55.8,53.0,29.71,SW,229,5.0,-999.0,91,-99.99,,,0.43,weatherlink.com 1.10,2013-01-30 10:31:00,
2013-01-30 04:46:00,54.7,53.0,29.72,NW,317,2.0,-999.0,93,-99.99,,,0.72,weatherlink.com 1.10,2013-01-30 10:46:00,
2013-01-30 05:01:00,54.2,53.0,29.72,NW,321,0.0,-999.0,94,-99.99,,,0.81,weatherlink.com 1.10,2013-01-30 11:01:00,
2013-01-30 05:16:00,54.2,53.0,29.73,NW,313,1.0,-999.0,94,-99.99,,,0.83,weatherlink.com 1.10,2013-01-30 11:16:00,
2013-01-30 05:31:00,54.1,53.0,29.72,West,259,4.0,-999.0,94,-99.99,,,0.86,weatherlink.com 1.10,2013-01-30 11:31:00,
2013-01-30 05:46:00,53.8,52.0,29.72,North,355,0.0,-999.0,95,-99.99,,,0.88,weatherlink.com 1.10,2013-01-30 11:46:00,
2013-01-30 06:01:00,53.5,52.0,29.71,NNW,333,1.0,-999.0,95,-99.99,,,0.90,weatherlink.com 1.10,2013-01-30 12:01:00,
2013-01-30 06:16:00,53.3,52.0,29.72,NW,321,0.0,-999.0,95,-99.99,,,0.90,weatherlink.com 1.10,2013-01-30 12:16:00,
2013-01-30 06:31:00,53.4,52.0,29.73,West,261,0.0,-999.0,95,-99.99,,,0.90,weatherlink.com 1.10,2013-01-30 12:31:00,
2013-01-30 06:46:00,53.4,52.0,29.73,West,266,0.0,-999.0,95,-99.99,,,0.90,weatherlink.com 1.10,2013-01-30 12:46:00,
2013-01-30 07:01:00,53.4,52.0,29.73,West,266,0.0,-999.0,95,-99.99,,,0.90,weatherlink.com 1.10,2013-01-30 13:01:00,
2013-01-30 07:16:00,53.5,52.0,29.74,West,266,0.0,-999.0,96,-99.99,,,0.90,weatherlink.com 1.10,2013-01-30 13:16:00,
2013-01-30 07:31:00,53.7,52.0,29.75,West,266,0.0,-999.0,95,-99.99,,,0.90,weatherlink.com 1.10,2013-01-30 13:31:00,
2013-01-30 07:46:00,53.9,53.0,29.77,West,266,0.0,-999.0,96,-99.99,,,0.90,weatherlink.com 1.10,2013-01-30 13:46:00,
2013-01-30 08:01:00,54.1,53.0,29.76,West,267,0.0,-999.0,96,-99.99,,,0.90,weatherlink.com 1.10,2013-01-30 14:01:00,
2013-01-30 08:16:00,54.2,53.0,29.77,West,274,0.0,-999.0,96,-99.99,,,0.90,weatherlink.com 1.10,2013-01-30 14:16:00,
2013-01-30 08:31:00,54.5,53.0,29.78,SW,227,0.0,-999.0,96,-99.99,,,0.90,weatherlink.com 1.10,2013-01-30 14:31:00,
2013-01-30 08:46:00,54.8,54.0,29.79,West,259,1.0,-999.0,96,-99.99,,,0.90,weatherlink.com 1.10,2013-01-30 14:46:00,
2013-01-30 09:01:00,55.3,54.0,29.78,West,260,5.0,-999.0,96,-99.99,,,0.90,weatherlink.com 1.10,2013-01-30 15:01:00,
2013-01-30 09:16:00,55.2,54.0,29.80,WSW,245,2.0,-999.0,95,-99.99,,,0.90,weatherlink.com 1.10,2013-01-30 15:16:00,
2013-01-30 09:31:00,54.9,54.0,29.81,WSW,253,4.0,-999.0,95,-99.99,,,0.90,weatherlink.com 1.10,2013-01-30 15:31:00,
2013-01-30 09:46:00,55.1,52.0,29.82,West,281,2.0,-999.0,88,-99.99,,,0.90,weatherlink.com 1.10,2013-01-30 15:46:00,
2013-01-30 10:01:00,56.3,51.0,29.82,WSW,250,0.0,-999.0,82,-99.99,,,0.90,weatherlink.com 1.10,2013-01-30 16:01:00,
2013-01-30 10:16:00,56.9,49.0,29.81,WSW,249,8.0,-999.0,76,-99.99,,,0.90,weatherlink.com 1.10,2013-01-30 16:16:00,
2013-01-30 10:31:00,57.6,49.0,29.82,West,269,0.0,-999.0,73,-99.99,,,0.90,weatherlink.com 1.10,2013-01-30 16:31:00,
2013-01-30 10:46:00,58.1,49.0,29.82,WSW,238,1.0,-999.0,71,-99.99,,,0.90,weatherlink.com 1.10,2013-01-30 16:46:00,
2013-01-30 11:01:00,58.5,48.0,29.83,West,268,1.0,-999.0,68,-99.99,,,0.91,weatherlink.com 1.10,2013-01-30 17:01:00,
2013-01-30 11:16:00,59.1,47.0,29.84,WSW,240,7.0,-999.0,64,-99.99,,,0.91,weatherlink.com 1.10,2013-01-30 17:16:00,
2013-01-30 11:31:00,59.1,42.0,29.84,West,267,2.0,-999.0,53,-99.99,,,0.91,weatherlink.com 1.10,2013-01-30 17:31:00,
2013-01-30 11:46:00,59.2,43.0,29.84,SW,235,11.0,-999.0,56,-99.99,,,0.91,weatherlink.com 1.10,2013-01-30 17:46:00,
2013-01-30 12:01:00,59.0,40.0,29.84,WSW,241,13.0,-999.0,50,-99.99,,,0.91,weatherlink.com 1.10,2013-01-30 18:01:00,
2013-01-30 12:16:00,58.7,38.0,29.85,WSW,244,7.0,-999.0,46,-99.99,,,0.91,weatherlink.com 1.10,2013-01-30 18:16:00,
2013-01-30 12:31:00,58.6,37.0,29.84,WNW,293,2.0,-999.0,45,-99.99,,,0.91,weatherlink.com 1.10,2013-01-30 18:31:00,
2013-01-30 12:46:00,58.7,37.0,29.85,WSW,246,2.0,-999.0,44,-99.99,,,0.91,weatherlink.com 1.10,2013-01-30 18:46:00,
2013-01-30 13:01:00,59.1,36.0,29.85,West,263,5.0,-999.0,42,-99.99,,,0.91,weatherlink.com 1.10,2013-01-30 19:01:00,
2013-01-30 13:17:00,59.0,38.0,29.86,SW,229,3.0,-999.0,45,-99.99,,,0.91,weatherlink.com 1.10,2013-01-30 19:17:00,
2013-01-30 13:32:00,58.7,36.0,29.86,WSW,240,5.0,-999.0,43,-99.99,,,0.91,weatherlink.com 1.10,2013-01-30 19:32:00,
2013-01-30 13:47:00,59.2,36.0,29.87,West,259,8.0,-999.0,43,-99.99,,,0.91,weatherlink.com 1.10,2013-01-30 19:47:00,
2013-01-30 14:02:00,59.8,37.0,29.87,WSW,253,6.0,-999.0,43,-99.99,,,0.91,weatherlink.com 1.10,2013-01-30 20:02:00,
2013-01-30 14:17:00,60.3,37.0,29.87,West,265,6.0,-999.0,42,-99.99,,,0.91,weatherlink.com 1.10,2013-01-30 20:17:00,
2013-01-30 14:32:00,60.6,38.0,29.88,West,263,5.0,-999.0,43,-99.99,,,0.91,weatherlink.com 1.10,2013-01-30 20:32:00,
2013-01-30 14:47:00,60.0,38.0,29.88,WSW,254,8.0,-999.0,44,-99.99,,,0.91,weatherlink.com 1.10,2013-01-30 20:47:00,
2013-01-30 15:02:00,60.0,39.0,29.89,NNE,13,3.0,-999.0,47,-99.99,,,0.91,weatherlink.com 1.10,2013-01-30 21:02:00,
2013-01-30 15:17:00,59.5,39.0,29.90,West,264,3.0,-999.0,47,-99.99,,,0.91,weatherlink.com 1.10,2013-01-30 21:17:00,
2013-01-30 15:32:00,58.9,39.0,29.90,West,272,7.0,-999.0,48,-99.99,,,0.91,weatherlink.com 1.10,2013-01-30 21:32:00,
2013-01-30 15:47:00,58.2,38.0,29.91,WSW,249,13.0,-999.0,48,-99.99,,,0.91,weatherlink.com 1.10,2013-01-30 21:47:00,
2013-01-30 16:02:00,58.2,38.0,29.91,WNW,293,6.0,-999.0,48,-99.99,,,0.91,weatherlink.com 1.10,2013-01-30 22:02:00,
2013-01-30 16:17:00,57.1,37.0,29.94,WNW,300,7.0,-999.0,48,-99.99,,,0.91,weatherlink.com 1.10,2013-01-30 22:17:00,
2013-01-30 16:32:00,56.4,37.0,29.95,WNW,290,14.0,-999.0,49,-99.99,,,0.91,weatherlink.com 1.10,2013-01-30 22:32:00,
2013-01-30 16:47:00,56.0,38.0,29.96,West,280,1.0,-999.0,51,-99.99,,,0.91,weatherlink.com 1.10,2013-01-30 22:47:00,
2013-01-30 17:02:00,54.5,36.0,29.98,West,271,10.0,-999.0,51,-99.99,,,0.91,weatherlink.com 1.10,2013-01-30 23:02:00,
2013-01-30 17:17:00,53.6,36.0,29.98,North,5,8.0,-999.0,52,-99.99,,,0.91,weatherlink.com 1.10,2013-01-30 23:17:00,
2013-01-30 17:32:00,52.7,37.0,30.00,NNW,331,2.0,-999.0,56,-99.99,,,0.91,weatherlink.com 1.10,2013-01-30 23:32:00,
2013-01-30 17:47:00,51.9,36.0,30.01,NW,326,9.0,-999.0,56,-99.99,,,0.91,weatherlink.com 1.10,2013-01-30 23:47:00,
2013-01-30 18:02:00,51.0,34.0,30.02,NNW,341,6.0,-999.0,53,-99.99,,,0.91,weatherlink.com 1.10,2013-01-31 00:02:00,
2013-01-30 18:17:00,50.3,34.0,30.03,NW,315,5.0,-999.0,54,-99.99,,,0.91,weatherlink.com 1.10,2013-01-31 00:17:00,
2013-01-30 18:32:00,49.9,34.0,30.05,NNW,335,11.0,-999.0,54,-99.99,,,0.91,weatherlink.com 1.10,2013-01-31 00:32:00,
2013-01-30 18:47:00,49.6,33.0,30.07,West,277,12.0,-999.0,53,-99.99,,,0.91,weatherlink.com 1.10,2013-01-31 00:47:00,
2013-01-30 19:02:00,49.4,33.0,30.08,NNW,327,0.0,-999.0,53,-99.99,,,0.91,weatherlink.com 1.10,2013-01-31 01:02:00,
2013-01-30 19:17:00,49.0,32.0,30.09,West,279,7.0,-999.0,53,-99.99,,,0.91,weatherlink.com 1.10,2013-01-31 01:17:00,
2013-01-30 19:32:00,48.6,32.0,30.10,NW,306,7.0,-999.0,54,-99.99,,,0.91,weatherlink.com 1.10,2013-01-31 01:32:00,
2013-01-30 19:47:00,48.3,33.0,30.10,NW,319,1.0,-999.0,55,-99.99,,,0.91,weatherlink.com 1.10,2013-01-31 01:47:00,
2013-01-30 20:03:00,47.8,33.0,30.10,NW,304,7.0,-999.0,56,-99.99,,,0.91,weatherlink.com 1.10,2013-01-31 02:03:00,
2013-01-30 20:18:00,47.4,33.0,30.11,WNW,296,7.0,-999.0,57,-99.99,,,0.91,weatherlink.com 1.10,2013-01-31 02:18:00,
2013-01-30 20:33:00,47.1,33.0,30.11,NW,304,0.0,-999.0,59,-99.99,,,0.91,weatherlink.com 1.10,2013-01-31 02:33:00,
2013-01-30 20:48:00,46.7,33.0,30.13,WNW,302,0.0,-999.0,60,-99.99,,,0.91,weatherlink.com 1.10,2013-01-31 02:48:00,
2013-01-30 21:03:00,46.2,33.0,30.14,WNW,302,0.0,-999.0,61,-99.99,,,0.91,weatherlink.com 1.10,2013-01-31 03:03:00,
2013-01-30 21:18:00,45.7,34.0,30.15,WNW,302,0.0,-999.0,64,-99.99,,,0.91,weatherlink.com 1.10,2013-01-31 03:18:00,
2013-01-30 21:33:00,45.3,33.0,30.15,NW,304,0.0,-999.0,63,-99.99,,,0.91,weatherlink.com 1.10,2013-01-31 03:33:00,
2013-01-30 21:48:00,45.0,33.0,30.16,WNW,303,0.0,-999.0,64,-99.99,,,0.91,weatherlink.com 1.10,2013-01-31 03:48:00,
2013-01-30 22:03:00,44.8,33.0,30.17,WNW,286,0.0,-999.0,64,-99.99,,,0.91,weatherlink.com 1.10,2013-01-31 04:03:00,
2013-01-30 22:18:00,44.6,33.0,30.17,WNW,286,0.0,-999.0,65,-99.99,,,0.91,weatherlink.com 1.10,2013-01-31 04:18:00,
2013-01-30 22:33:00,44.2,35.0,30.18,WNW,285,0.0,-999.0,69,-99.99,,,0.91,weatherlink.com 1.10,2013-01-31 04:33:00,
2013-01-30 22:48:00,43.8,35.0,30.19,WNW,285,0.0,-999.0,72,-99.99,,,0.91,weatherlink.com 1.10,2013-01-31 04:48:00,
2013-01-30 23:03:00,43.3,36.0,30.19,WNW,285,0.0,-999.0,75,-99.99,,,0.91,weatherlink.com 1.10,2013-01-31 05:03:00,
2013-01-30 23:18:00,42.5,36.0,30.20,WNW,285,0.0,-999.0,77,-99.99,,,0.91,weatherlink.com 1.10,2013-01-31 05:18:00,
2013-01-30 23:33:00,41.8,36.0,30.20,WNW,285,0.0,-999.0,80,-99.99,,,0.91,weatherlink.com 1.10,2013-01-31 05:33:00,
2013-01-30 23:48:00,41.2,36.0,30.21,WNW,285,0.0,-999.0,82,-99.99,,,0.91,weatherlink.com 1.10,2013-01-31 05:48:00,